sensor_id;sensor_type;location;lat;lon;timestamp;P1;durP1;ratioP1;P2;durP2;ratioP2
17340;SDS011;8788;49.930;8.660;2022-08-19T04:06:40;14.65;;;10.00;;
17340;SDS011;8788;49.930;8.660;2022-08-19T04:09:10;11.43;;;9.65;;
17340;SDS011;8788;49.930;8.660;2022-08-19T04:11:38;13.25;;;10.80;;
17340;SDS011;8788;49.930;8.660;2022-08-19T04:14:07;14.18;;;9.90;;
17340;SDS011;8788;49.930;8.660;2022-08-19T04:16:36;13.48;;;10.23;;
17340;SDS011;8788;49.930;8.660;2022-08-19T04:19:04;12.30;;;10.40;;
17340;SDS011;8788;49.930;8.660;2022-08-19T04:21:33;12.75;;;10.02;;
17340;SDS011;8788;49.930;8.660;2022-08-19T04:24:00;13.00;;;10.55;;
17340;SDS011;8788;49.930;8.660;2022-08-19T04:26:29;13.45;;;10.45;;
17340;SDS011;8788;49.930;8.660;2022-08-19T04:28:58;13.82;;;10.65;;
17340;SDS011;8788;49.930;8.660;2022-08-19T04:31:27;12.80;;;10.13;;
17340;SDS011;8788;49.930;8.660;2022-08-19T04:33:58;14.55;;;10.82;;
17340;SDS011;8788;49.930;8.660;2022-08-19T04:36:27;13.10;;;10.07;;
17340;SDS011;8788;49.930;8.660;2022-08-19T04:39:00;11.25;;;10.02;;
17340;SDS011;8788;49.930;8.660;2022-08-19T04:41:29;14.95;;;10.70;;
17340;SDS011;8788;49.930;8.660;2022-08-19T04:44:14;13.48;;;10.10;;
17340;SDS011;8788;49.930;8.660;2022-08-19T04:46:43;12.85;;;9.75;;
17340;SDS011;8788;49.930;8.660;2022-08-19T04:49:10;13.32;;;10.20;;
17340;SDS011;8788;49.930;8.660;2022-08-19T04:51:39;12.85;;;9.57;;
17340;SDS011;8788;49.930;8.660;2022-08-19T04:54:08;12.05;;;10.43;;
17340;SDS011;8788;49.930;8.660;2022-08-19T04:56:36;10.70;;;9.48;;
17340;SDS011;8788;49.930;8.660;2022-08-19T04:59:03;14.10;;;10.05;;
17340;SDS011;8788;49.930;8.660;2022-08-19T05:01:31;13.80;;;8.90;;
17340;SDS011;8788;49.930;8.660;2022-08-19T05:04:01;11.55;;;8.98;;
17340;SDS011;8788;49.930;8.660;2022-08-19T05:06:30;11.35;;;10.07;;
17340;SDS011;8788;49.930;8.660;2022-08-19T05:08:59;11.63;;;10.07;;
17340;SDS011;8788;49.930;8.660;2022-08-19T05:11:28;10.73;;;9.55;;
17340;SDS011;8788;49.930;8.660;2022-08-19T05:13:57;11.95;;;9.57;;
17340;SDS011;8788;49.930;8.660;2022-08-19T05:16:25;12.30;;;9.18;;
17340;SDS011;8788;49.930;8.660;2022-08-19T05:18:52;13.98;;;9.30;;
17340;SDS011;8788;49.930;8.660;2022-08-19T05:21:39;14.77;;;10.70;;
17340;SDS011;8788;49.930;8.660;2022-08-19T05:24:24;11.80;;;10.27;;
17340;SDS011;8788;49.930;8.660;2022-08-19T05:26:54;13.63;;;10.80;;
17340;SDS011;8788;49.930;8.660;2022-08-19T05:29:24;12.05;;;10.50;;
17340;SDS011;8788;49.930;8.660;2022-08-19T05:31:53;11.88;;;10.52;;
17340;SDS011;8788;49.930;8.660;2022-08-19T05:34:22;12.15;;;10.77;;
17340;SDS011;8788;49.930;8.660;2022-08-19T05:36:52;14.10;;;11.02;;
17340;SDS011;8788;49.930;8.660;2022-08-19T05:39:22;13.43;;;10.88;;
17340;SDS011;8788;49.930;8.660;2022-08-19T05:41:52;13.20;;;10.75;;
17340;SDS011;8788;49.930;8.660;2022-08-19T05:44:23;11.55;;;10.35;;
17340;SDS011;8788;49.930;8.660;2022-08-19T05:46:50;13.35;;;10.63;;
17340;SDS011;8788;49.930;8.660;2022-08-19T05:49:20;12.55;;;10.48;;
17340;SDS011;8788;49.930;8.660;2022-08-19T05:51:49;12.73;;;11.15;;
17340;SDS011;8788;49.930;8.660;2022-08-19T05:54:17;14.32;;;11.35;;
17340;SDS011;8788;49.930;8.660;2022-08-19T05:56:45;14.75;;;11.05;;
17340;SDS011;8788;49.930;8.660;2022-08-19T05:59:15;12.13;;;10.07;;
17340;SDS011;8788;49.930;8.660;2022-08-19T06:01:44;11.98;;;10.50;;
17340;SDS011;8788;49.930;8.660;2022-08-19T06:04:16;14.13;;;11.15;;
17340;SDS011;8788;49.930;8.660;2022-08-19T06:06:44;12.13;;;10.00;;
17340;SDS011;8788;49.930;8.660;2022-08-19T06:09:12;14.38;;;10.75;;
17340;SDS011;8788;49.930;8.660;2022-08-19T06:11:40;13.30;;;9.50;;
17340;SDS011;8788;49.930;8.660;2022-08-19T06:14:10;10.93;;;9.68;;
17340;SDS011;8788;49.930;8.660;2022-08-19T06:16:41;11.18;;;9.52;;
17340;SDS011;8788;49.930;8.660;2022-08-19T06:19:10;11.07;;;9.25;;
17340;SDS011;8788;49.930;8.660;2022-08-19T06:21:39;9.50;;;8.43;;
17340;SDS011;8788;49.930;8.660;2022-08-19T06:24:09;11.02;;;8.75;;
17340;SDS011;8788;49.930;8.660;2022-08-19T06:26:38;13.13;;;10.00;;
17340;SDS011;8788;49.930;8.660;2022-08-19T06:29:08;10.75;;;9.20;;
17340;SDS011;8788;49.930;8.660;2022-08-19T06:31:40;10.63;;;8.65;;
17340;SDS011;8788;49.930;8.660;2022-08-19T06:34:10;11.32;;;8.63;;
17340;SDS011;8788;49.930;8.660;2022-08-19T06:36:39;10.35;;;8.57;;
17340;SDS011;8788;49.930;8.660;2022-08-19T06:39:10;10.63;;;8.93;;
17340;SDS011;8788;49.930;8.660;2022-08-19T06:41:39;9.25;;;8.27;;
17340;SDS011;8788;49.930;8.660;2022-08-19T06:44:15;9.43;;;7.63;;
17340;SDS011;8788;49.930;8.660;2022-08-19T06:46:45;10.93;;;7.65;;
17340;SDS011;8788;49.930;8.660;2022-08-19T06:49:12;9.70;;;7.95;;
17340;SDS011;8788;49.930;8.660;2022-08-19T06:51:40;12.23;;;8.05;;
17340;SDS011;8788;49.930;8.660;2022-08-19T06:54:08;12.45;;;7.93;;
17340;SDS011;8788;49.930;8.660;2022-08-19T06:56:37;10.63;;;7.82;;
17340;SDS011;8788;49.930;8.660;2022-08-19T06:59:06;8.73;;;7.82;;
17340;SDS011;8788;49.930;8.660;2022-08-19T07:01:35;10.13;;;7.55;;
17340;SDS011;8788;49.930;8.660;2022-08-19T07:04:05;8.10;;;7.30;;
17340;SDS011;8788;49.930;8.660;2022-08-19T07:06:33;8.32;;;6.60;;
17340;SDS011;8788;49.930;8.660;2022-08-19T07:09:02;10.10;;;7.28;;
17340;SDS011;8788;49.930;8.660;2022-08-19T07:11:30;7.63;;;6.82;;
17340;SDS011;8788;49.930;8.660;2022-08-19T07:13:58;9.18;;;6.93;;
17340;SDS011;8788;49.930;8.660;2022-08-19T07:16:26;7.32;;;6.63;;
17340;SDS011;8788;49.930;8.660;2022-08-19T07:18:53;7.65;;;6.05;;
17340;SDS011;8788;49.930;8.660;2022-08-19T07:21:23;6.80;;;6.03;;
17340;SDS011;8788;49.930;8.660;2022-08-19T07:23:54;6.45;;;5.85;;
17340;SDS011;8788;49.930;8.660;2022-08-19T07:26:22;6.65;;;5.95;;
17340;SDS011;8788;49.930;8.660;2022-08-19T07:28:51;7.93;;;5.88;;
17340;SDS011;8788;49.930;8.660;2022-08-19T07:31:19;6.88;;;5.80;;
17340;SDS011;8788;49.930;8.660;2022-08-19T07:33:48;6.72;;;6.03;;
17340;SDS011;8788;49.930;8.660;2022-08-19T07:36:18;6.13;;;5.35;;
17340;SDS011;8788;49.930;8.660;2022-08-19T07:38:49;7.78;;;5.28;;
17340;SDS011;8788;49.930;8.660;2022-08-19T07:41:18;7.20;;;5.65;;
17340;SDS011;8788;49.930;8.660;2022-08-19T07:43:49;8.90;;;6.25;;
17340;SDS011;8788;49.930;8.660;2022-08-19T07:46:17;6.40;;;5.57;;
17340;SDS011;8788;49.930;8.660;2022-08-19T07:48:46;5.97;;;5.38;;
17340;SDS011;8788;49.930;8.660;2022-08-19T07:51:16;6.28;;;4.90;;
17340;SDS011;8788;49.930;8.660;2022-08-19T07:53:45;12.52;;;5.70;;
17340;SDS011;8788;49.930;8.660;2022-08-19T07:56:14;7.25;;;4.80;;
17340;SDS011;8788;49.930;8.660;2022-08-19T07:58:42;6.30;;;4.53;;
17340;SDS011;8788;49.930;8.660;2022-08-19T08:01:12;4.80;;;3.47;;
17340;SDS011;8788;49.930;8.660;2022-08-19T08:03:41;4.45;;;3.05;;
17340;SDS011;8788;49.930;8.660;2022-08-19T08:06:26;2.72;;;2.33;;
17340;SDS011;8788;49.930;8.660;2022-08-19T08:09:11;2.40;;;2.20;;
17340;SDS011;8788;49.930;8.660;2022-08-19T08:11:48;2.67;;;2.47;;
17340;SDS011;8788;49.930;8.660;2022-08-19T08:14:19;2.85;;;2.50;;
17340;SDS011;8788;49.930;8.660;2022-08-19T08:16:48;2.75;;;2.55;;
17340;SDS011;8788;49.930;8.660;2022-08-19T08:19:17;3.55;;;3.05;;
17340;SDS011;8788;49.930;8.660;2022-08-19T08:21:46;3.20;;;2.83;;
17340;SDS011;8788;49.930;8.660;2022-08-19T08:24:13;3.30;;;2.70;;
17340;SDS011;8788;49.930;8.660;2022-08-19T08:26:42;2.72;;;2.53;;
17340;SDS011;8788;49.930;8.660;2022-08-19T08:29:11;3.00;;;2.80;;
17340;SDS011;8788;49.930;8.660;2022-08-19T08:31:39;5.25;;;3.65;;
17340;SDS011;8788;49.930;8.660;2022-08-19T08:34:07;3.45;;;2.78;;
17340;SDS011;8788;49.930;8.660;2022-08-19T08:36:36;4.95;;;3.42;;
17340;SDS011;8788;49.930;8.660;2022-08-19T08:39:05;3.17;;;2.50;;
17340;SDS011;8788;49.930;8.660;2022-08-19T08:41:34;4.28;;;2.92;;
17340;SDS011;8788;49.930;8.660;2022-08-19T08:44:10;3.47;;;3.05;;
17340;SDS011;8788;49.930;8.660;2022-08-19T08:46:45;3.78;;;3.03;;
17340;SDS011;8788;49.930;8.660;2022-08-19T08:49:18;2.70;;;2.50;;
17340;SDS011;8788;49.930;8.660;2022-08-19T08:51:54;3.20;;;2.60;;
17340;SDS011;8788;49.930;8.660;2022-08-19T08:54:28;2.92;;;2.63;;
17340;SDS011;8788;49.930;8.660;2022-08-19T08:57:00;2.78;;;2.50;;
17340;SDS011;8788;49.930;8.660;2022-08-19T08:59:36;5.45;;;2.90;;
17340;SDS011;8788;49.930;8.660;2022-08-19T09:02:05;3.60;;;2.72;;
17340;SDS011;8788;49.930;8.660;2022-08-19T09:04:33;2.63;;;2.42;;
17340;SDS011;8788;49.930;8.660;2022-08-19T09:07:10;2.42;;;2.22;;
17340;SDS011;8788;49.930;8.660;2022-08-19T09:09:46;2.60;;;2.40;;
17340;SDS011;8788;49.930;8.660;2022-08-19T09:12:16;3.22;;;2.30;;
17340;SDS011;8788;49.930;8.660;2022-08-19T09:14:52;2.53;;;2.28;;
17340;SDS011;8788;49.930;8.660;2022-08-19T09:17:24;3.03;;;2.75;;
17340;SDS011;8788;49.930;8.660;2022-08-19T09:19:57;2.80;;;2.60;;
17340;SDS011;8788;49.930;8.660;2022-08-19T09:22:29;3.90;;;3.10;;
17340;SDS011;8788;49.930;8.660;2022-08-19T09:24:56;2.58;;;2.38;;
17340;SDS011;8788;49.930;8.660;2022-08-19T09:27:24;3.33;;;3.03;;
17340;SDS011;8788;49.930;8.660;2022-08-19T09:29:54;5.00;;;2.78;;
17340;SDS011;8788;49.930;8.660;2022-08-19T09:32:22;3.83;;;3.53;;
17340;SDS011;8788;49.930;8.660;2022-08-19T09:34:50;4.15;;;3.42;;
17340;SDS011;8788;49.930;8.660;2022-08-19T09:37:19;4.35;;;3.78;;
17340;SDS011;8788;49.930;8.660;2022-08-19T09:39:47;4.05;;;3.65;;
17340;SDS011;8788;49.930;8.660;2022-08-19T09:42:14;4.65;;;3.38;;
17340;SDS011;8788;49.930;8.660;2022-08-19T09:44:42;3.70;;;3.40;;
17340;SDS011;8788;49.930;8.660;2022-08-19T09:47:11;4.55;;;2.95;;
17340;SDS011;8788;49.930;8.660;2022-08-19T09:49:40;6.78;;;4.47;;
17340;SDS011;8788;49.930;8.660;2022-08-19T09:52:09;6.45;;;4.47;;
17340;SDS011;8788;49.930;8.660;2022-08-19T09:54:37;4.60;;;4.05;;
17340;SDS011;8788;49.930;8.660;2022-08-19T09:57:05;4.25;;;3.92;;
17340;SDS011;8788;49.930;8.660;2022-08-19T09:59:32;4.25;;;3.45;;
17340;SDS011;8788;49.930;8.660;2022-08-19T10:02:00;4.47;;;4.07;;
17340;SDS011;8788;49.930;8.660;2022-08-19T10:04:28;4.78;;;4.22;;
17340;SDS011;8788;49.930;8.660;2022-08-19T10:07:09;5.75;;;3.85;;
17340;SDS011;8788;49.930;8.660;2022-08-19T10:09:37;4.43;;;4.03;;
17340;SDS011;8788;49.930;8.660;2022-08-19T10:12:06;6.35;;;4.22;;
17340;SDS011;8788;49.930;8.660;2022-08-19T10:14:33;7.28;;;4.15;;
17340;SDS011;8788;49.930;8.660;2022-08-19T10:17:01;3.70;;;3.40;;
17340;SDS011;8788;49.930;8.660;2022-08-19T10:19:30;4.40;;;4.00;;
17340;SDS011;8788;49.930;8.660;2022-08-19T10:22:02;7.10;;;4.75;;
17340;SDS011;8788;49.930;8.660;2022-08-19T10:24:31;7.82;;;4.65;;
17340;SDS011;8788;49.930;8.660;2022-08-19T10:26:59;4.32;;;3.92;;
17340;SDS011;8788;49.930;8.660;2022-08-19T10:29:28;4.43;;;4.03;;
17340;SDS011;8788;49.930;8.660;2022-08-19T10:31:57;5.13;;;4.07;;
17340;SDS011;8788;49.930;8.660;2022-08-19T10:34:25;4.22;;;3.72;;
17340;SDS011;8788;49.930;8.660;2022-08-19T10:36:54;3.30;;;3.03;;
17340;SDS011;8788;49.930;8.660;2022-08-19T10:39:23;4.15;;;3.85;;
17340;SDS011;8788;49.930;8.660;2022-08-19T10:41:50;4.90;;;4.40;;
17340;SDS011;8788;49.930;8.660;2022-08-19T10:44:17;4.95;;;4.43;;
17340;SDS011;8788;49.930;8.660;2022-08-19T10:46:45;5.03;;;4.45;;
17340;SDS011;8788;49.930;8.660;2022-08-19T10:49:12;5.03;;;4.63;;
17340;SDS011;8788;49.930;8.660;2022-08-19T10:51:40;5.13;;;4.63;;
17340;SDS011;8788;49.930;8.660;2022-08-19T10:54:27;6.65;;;4.25;;
17340;SDS011;8788;49.930;8.660;2022-08-19T10:57:08;4.63;;;4.18;;
17340;SDS011;8788;49.930;8.660;2022-08-19T10:59:35;4.78;;;4.47;;
17340;SDS011;8788;49.930;8.660;2022-08-19T11:02:03;4.45;;;4.10;;
17340;SDS011;8788;49.930;8.660;2022-08-19T11:04:32;4.20;;;3.80;;
17340;SDS011;8788;49.930;8.660;2022-08-19T11:06:59;3.60;;;3.30;;
17340;SDS011;8788;49.930;8.660;2022-08-19T11:09:28;5.60;;;3.70;;
17340;SDS011;8788;49.930;8.660;2022-08-19T11:11:56;4.20;;;3.60;;
17340;SDS011;8788;49.930;8.660;2022-08-19T11:14:23;3.88;;;3.50;;
17340;SDS011;8788;49.930;8.660;2022-08-19T11:16:51;4.25;;;3.88;;
17340;SDS011;8788;49.930;8.660;2022-08-19T11:19:21;4.03;;;3.63;;
17340;SDS011;8788;49.930;8.660;2022-08-19T11:21:49;5.28;;;4.03;;
17340;SDS011;8788;49.930;8.660;2022-08-19T11:24:18;4.82;;;4.43;;
17340;SDS011;8788;49.930;8.660;2022-08-19T11:26:48;4.00;;;3.70;;
17340;SDS011;8788;49.930;8.660;2022-08-19T11:29:18;4.30;;;4.00;;
17340;SDS011;8788;49.930;8.660;2022-08-19T11:31:47;5.28;;;4.53;;
17340;SDS011;8788;49.930;8.660;2022-08-19T11:34:17;5.00;;;4.50;;
17340;SDS011;8788;49.930;8.660;2022-08-19T11:36:46;4.20;;;3.80;;
17340;SDS011;8788;49.930;8.660;2022-08-19T11:39:16;5.13;;;4.43;;
17340;SDS011;8788;49.930;8.660;2022-08-19T11:41:45;5.07;;;4.68;;
17340;SDS011;8788;49.930;8.660;2022-08-19T11:44:14;5.30;;;4.80;;
17340;SDS011;8788;49.930;8.660;2022-08-19T11:46:42;5.22;;;4.45;;
17340;SDS011;8788;49.930;8.660;2022-08-19T11:49:11;5.55;;;5.03;;
17340;SDS011;8788;49.930;8.660;2022-08-19T11:51:39;5.55;;;5.15;;
17340;SDS011;8788;49.930;8.660;2022-08-19T11:54:08;5.57;;;5.07;;
17340;SDS011;8788;49.930;8.660;2022-08-19T11:56:36;6.43;;;5.93;;
17340;SDS011;8788;49.930;8.660;2022-08-19T11:59:04;6.03;;;5.53;;
17340;SDS011;8788;49.930;8.660;2022-08-19T12:01:34;6.32;;;5.70;;
17340;SDS011;8788;49.930;8.660;2022-08-19T12:04:01;6.35;;;5.78;;
17340;SDS011;8788;49.930;8.660;2022-08-19T12:06:30;6.35;;;5.85;;
17340;SDS011;8788;49.930;8.660;2022-08-19T12:09:00;6.03;;;5.43;;
17340;SDS011;8788;49.930;8.660;2022-08-19T12:11:28;6.22;;;5.63;;
17340;SDS011;8788;49.930;8.660;2022-08-19T12:13:56;5.72;;;5.22;;
17340;SDS011;8788;49.930;8.660;2022-08-19T12:16:24;8.98;;;6.10;;
17340;SDS011;8788;49.930;8.660;2022-08-19T12:18:57;6.47;;;5.95;;
17340;SDS011;8788;49.930;8.660;2022-08-19T12:21:28;6.13;;;5.53;;
17340;SDS011;8788;49.930;8.660;2022-08-19T12:23:57;6.25;;;5.65;;
17340;SDS011;8788;49.930;8.660;2022-08-19T12:26:26;5.90;;;5.40;;
17340;SDS011;8788;49.930;8.660;2022-08-19T12:28:54;6.28;;;5.57;;
17340;SDS011;8788;49.930;8.660;2022-08-19T12:31:21;6.25;;;5.75;;
17340;SDS011;8788;49.930;8.660;2022-08-19T12:33:48;6.03;;;5.15;;
17340;SDS011;8788;49.930;8.660;2022-08-19T12:36:18;5.85;;;5.32;;
17340;SDS011;8788;49.930;8.660;2022-08-19T12:38:47;6.00;;;5.40;;
17340;SDS011;8788;49.930;8.660;2022-08-19T12:41:15;4.40;;;4.00;;
17340;SDS011;8788;49.930;8.660;2022-08-19T12:43:43;5.47;;;4.97;;
17340;SDS011;8788;49.930;8.660;2022-08-19T12:46:14;5.45;;;4.82;;
17340;SDS011;8788;49.930;8.660;2022-08-19T12:48:41;4.90;;;4.50;;
17340;SDS011;8788;49.930;8.660;2022-08-19T12:51:12;4.28;;;3.92;;
17340;SDS011;8788;49.930;8.660;2022-08-19T12:53:42;4.70;;;4.32;;
17340;SDS011;8788;49.930;8.660;2022-08-19T12:56:10;4.32;;;3.92;;
17340;SDS011;8788;49.930;8.660;2022-08-19T12:58:40;3.47;;;3.15;;
17340;SDS011;8788;49.930;8.660;2022-08-19T13:01:09;3.38;;;3.17;;
17340;SDS011;8788;49.930;8.660;2022-08-19T13:03:37;3.80;;;2.90;;
17340;SDS011;8788;49.930;8.660;2022-08-19T13:06:05;3.50;;;3.20;;
17340;SDS011;8788;49.930;8.660;2022-08-19T13:08:32;3.28;;;2.92;;
17340;SDS011;8788;49.930;8.660;2022-08-19T13:11:08;4.78;;;3.03;;
17340;SDS011;8788;49.930;8.660;2022-08-19T13:13:37;3.95;;;3.53;;
17340;SDS011;8788;49.930;8.660;2022-08-19T13:16:06;3.70;;;3.40;;
17340;SDS011;8788;49.930;8.660;2022-08-19T13:18:37;4.47;;;3.08;;
17340;SDS011;8788;49.930;8.660;2022-08-19T13:21:06;2.78;;;2.58;;
17340;SDS011;8788;49.930;8.660;2022-08-19T13:23:35;2.80;;;2.60;;
17340;SDS011;8788;49.930;8.660;2022-08-19T13:26:03;5.30;;;2.78;;
17340;SDS011;8788;49.930;8.660;2022-08-19T13:28:33;5.38;;;3.05;;
17340;SDS011;8788;49.930;8.660;2022-08-19T13:31:18;3.00;;;2.70;;
17340;SDS011;8788;49.930;8.660;2022-08-19T13:34:04;4.00;;;2.40;;
17340;SDS011;8788;49.930;8.660;2022-08-19T13:36:31;2.80;;;2.60;;
17340;SDS011;8788;49.930;8.660;2022-08-19T13:38:59;4.57;;;2.40;;
17340;SDS011;8788;49.930;8.660;2022-08-19T13:41:26;3.17;;;2.88;;
17340;SDS011;8788;49.930;8.660;2022-08-19T13:43:55;5.63;;;2.75;;
17340;SDS011;8788;49.930;8.660;2022-08-19T13:46:22;2.67;;;2.50;;
17340;SDS011;8788;49.930;8.660;2022-08-19T13:48:49;2.63;;;2.42;;
17340;SDS011;8788;49.930;8.660;2022-08-19T13:51:17;2.20;;;2.10;;
17340;SDS011;8788;49.930;8.660;2022-08-19T13:53:44;2.85;;;2.13;;
17340;SDS011;8788;49.930;8.660;2022-08-19T13:56:12;2.70;;;2.50;;
17340;SDS011;8788;49.930;8.660;2022-08-19T13:58:41;4.25;;;2.35;;
17340;SDS011;8788;49.930;8.660;2022-08-19T14:01:10;2.13;;;2.03;;
17340;SDS011;8788;49.930;8.660;2022-08-19T14:03:37;3.22;;;2.30;;
17340;SDS011;8788;49.930;8.660;2022-08-19T14:06:05;2.30;;;2.20;;
17340;SDS011;8788;49.930;8.660;2022-08-19T14:08:32;1.98;;;1.80;;
17340;SDS011;8788;49.930;8.660;2022-08-19T14:10:59;2.00;;;1.80;;
17340;SDS011;8788;49.930;8.660;2022-08-19T14:13:26;2.00;;;1.90;;
17340;SDS011;8788;49.930;8.660;2022-08-19T14:15:53;2.10;;;1.90;;
17340;SDS011;8788;49.930;8.660;2022-08-19T14:18:22;1.83;;;1.73;;
17340;SDS011;8788;49.930;8.660;2022-08-19T14:20:50;1.85;;;1.75;;
17340;SDS011;8788;49.930;8.660;2022-08-19T14:23:17;2.03;;;1.88;;
17340;SDS011;8788;49.930;8.660;2022-08-19T14:25:45;2.17;;;2.00;;
17340;SDS011;8788;49.930;8.660;2022-08-19T14:28:12;1.83;;;1.73;;
17340;SDS011;8788;49.930;8.660;2022-08-19T14:30:40;2.05;;;1.85;;
17340;SDS011;8788;49.930;8.660;2022-08-19T14:33:07;2.00;;;1.90;;
17340;SDS011;8788;49.930;8.660;2022-08-19T14:35:36;1.70;;;1.60;;
17340;SDS011;8788;49.930;8.660;2022-08-19T14:38:04;2.30;;;2.10;;
17340;SDS011;8788;49.930;8.660;2022-08-19T14:40:33;2.00;;;1.80;;
17340;SDS011;8788;49.930;8.660;2022-08-19T14:43:01;2.25;;;2.03;;
17340;SDS011;8788;49.930;8.660;2022-08-19T14:45:30;2.28;;;2.08;;
17340;SDS011;8788;49.930;8.660;2022-08-19T14:47:58;2.50;;;2.30;;
17340;SDS011;8788;49.930;8.660;2022-08-19T14:50:26;2.60;;;2.40;;
17340;SDS011;8788;49.930;8.660;2022-08-19T14:52:59;2.45;;;2.28;;
17340;SDS011;8788;49.930;8.660;2022-08-19T14:55:28;2.30;;;2.10;;
17340;SDS011;8788;49.930;8.660;2022-08-19T14:57:55;2.30;;;2.10;;
17340;SDS011;8788;49.930;8.660;2022-08-19T15:00:22;2.38;;;2.03;;
17340;SDS011;8788;49.930;8.660;2022-08-19T15:02:50;2.00;;;1.90;;
17340;SDS011;8788;49.930;8.660;2022-08-19T15:05:18;2.72;;;1.92;;
17340;SDS011;8788;49.930;8.660;2022-08-19T15:07:45;2.13;;;2.00;;
17340;SDS011;8788;49.930;8.660;2022-08-19T15:10:14;2.95;;;2.75;;
17340;SDS011;8788;49.930;8.660;2022-08-19T15:12:42;2.15;;;2.05;;
17340;SDS011;8788;49.930;8.660;2022-08-19T15:15:09;2.28;;;2.13;;
17340;SDS011;8788;49.930;8.660;2022-08-19T15:17:39;2.78;;;2.00;;
17340;SDS011;8788;49.930;8.660;2022-08-19T15:20:07;2.95;;;2.70;;
17340;SDS011;8788;49.930;8.660;2022-08-19T15:22:35;2.30;;;2.10;;
17340;SDS011;8788;49.930;8.660;2022-08-19T15:25:03;2.33;;;2.13;;
17340;SDS011;8788;49.930;8.660;2022-08-19T15:27:32;2.53;;;2.33;;
17340;SDS011;8788;49.930;8.660;2022-08-19T15:30:01;3.03;;;2.20;;
17340;SDS011;8788;49.930;8.660;2022-08-19T15:32:29;2.95;;;2.30;;
17340;SDS011;8788;49.930;8.660;2022-08-19T15:34:56;3.30;;;1.67;;
17340;SDS011;8788;49.930;8.660;2022-08-19T15:37:23;2.72;;;2.05;;
17340;SDS011;8788;49.930;8.660;2022-08-19T15:39:50;2.45;;;2.25;;
17340;SDS011;8788;49.930;8.660;2022-08-19T15:42:18;2.13;;;1.95;;
17340;SDS011;8788;49.930;8.660;2022-08-19T15:44:46;2.97;;;2.00;;
17340;SDS011;8788;49.930;8.660;2022-08-19T15:47:14;2.08;;;1.77;;
17340;SDS011;8788;49.930;8.660;2022-08-19T15:49:43;2.55;;;2.35;;
17340;SDS011;8788;49.930;8.660;2022-08-19T15:52:10;2.60;;;2.40;;
17340;SDS011;8788;49.930;8.660;2022-08-19T15:54:37;2.22;;;1.92;;
17340;SDS011;8788;49.930;8.660;2022-08-19T15:57:05;2.50;;;2.30;;
17340;SDS011;8788;49.930;8.660;2022-08-19T15:59:50;2.45;;;2.25;;
17340;SDS011;8788;49.930;8.660;2022-08-19T16:02:35;2.72;;;2.35;;
17340;SDS011;8788;49.930;8.660;2022-08-19T16:05:21;3.38;;;2.10;;
17340;SDS011;8788;49.930;8.660;2022-08-19T16:08:07;2.90;;;2.70;;
17340;SDS011;8788;49.930;8.660;2022-08-19T16:10:35;3.10;;;2.80;;
17340;SDS011;8788;49.930;8.660;2022-08-19T16:13:02;2.60;;;2.40;;
17340;SDS011;8788;49.930;8.660;2022-08-19T16:15:32;2.40;;;2.22;;
17340;SDS011;8788;49.930;8.660;2022-08-19T16:18:00;2.10;;;2.00;;
17340;SDS011;8788;49.930;8.660;2022-08-19T16:20:28;2.20;;;1.98;;
17340;SDS011;8788;49.930;8.660;2022-08-19T16:22:56;3.03;;;2.00;;
17340;SDS011;8788;49.930;8.660;2022-08-19T16:25:24;3.30;;;1.60;;
17340;SDS011;8788;49.930;8.660;2022-08-19T16:27:53;2.08;;;1.90;;
17340;SDS011;8788;49.930;8.660;2022-08-19T16:30:20;2.15;;;2.05;;
17340;SDS011;8788;49.930;8.660;2022-08-19T16:32:49;2.13;;;2.03;;
17340;SDS011;8788;49.930;8.660;2022-08-19T16:35:16;2.40;;;1.90;;
17340;SDS011;8788;49.930;8.660;2022-08-19T16:37:43;1.88;;;1.77;;
17340;SDS011;8788;49.930;8.660;2022-08-19T16:40:11;2.10;;;2.00;;
17340;SDS011;8788;49.930;8.660;2022-08-19T16:42:38;2.95;;;2.08;;
17340;SDS011;8788;49.930;8.660;2022-08-19T16:45:06;2.70;;;2.50;;
17340;SDS011;8788;49.930;8.660;2022-08-19T16:47:34;2.10;;;2.00;;
17340;SDS011;8788;49.930;8.660;2022-08-19T16:50:03;2.78;;;2.50;;
17340;SDS011;8788;49.930;8.660;2022-08-19T16:52:32;2.70;;;2.50;;
17340;SDS011;8788;49.930;8.660;2022-08-19T16:55:00;2.70;;;2.50;;
17340;SDS011;8788;49.930;8.660;2022-08-19T16:57:28;2.28;;;2.08;;
17340;SDS011;8788;49.930;8.660;2022-08-19T16:59:56;3.28;;;2.92;;
17340;SDS011;8788;49.930;8.660;2022-08-19T17:02:24;2.58;;;2.38;;
17340;SDS011;8788;49.930;8.660;2022-08-19T17:04:51;3.35;;;2.58;;
17340;SDS011;8788;49.930;8.660;2022-08-19T17:07:21;2.88;;;2.67;;
17340;SDS011;8788;49.930;8.660;2022-08-19T17:09:48;2.95;;;2.75;;
17340;SDS011;8788;49.930;8.660;2022-08-19T17:12:16;3.15;;;2.95;;
17340;SDS011;8788;49.930;8.660;2022-08-19T17:14:43;3.40;;;3.10;;
17340;SDS011;8788;49.930;8.660;2022-08-19T17:17:11;4.05;;;3.30;;
17340;SDS011;8788;49.930;8.660;2022-08-19T17:19:38;3.85;;;3.55;;
17340;SDS011;8788;49.930;8.660;2022-08-19T17:22:06;3.50;;;3.20;;
17340;SDS011;8788;49.930;8.660;2022-08-19T17:24:35;3.72;;;3.30;;
17340;SDS011;8788;49.930;8.660;2022-08-19T17:27:03;3.63;;;3.33;;
17340;SDS011;8788;49.930;8.660;2022-08-19T17:29:31;3.25;;;3.05;;
17340;SDS011;8788;49.930;8.660;2022-08-19T17:31:58;3.50;;;3.20;;
17340;SDS011;8788;49.930;8.660;2022-08-19T17:34:25;3.35;;;3.13;;
17340;SDS011;8788;49.930;8.660;2022-08-19T17:36:53;4.38;;;3.38;;
17340;SDS011;8788;49.930;8.660;2022-08-19T17:39:21;3.28;;;3.08;;
17340;SDS011;8788;49.930;8.660;2022-08-19T17:41:50;3.50;;;3.20;;
17340;SDS011;8788;49.930;8.660;2022-08-19T17:44:18;3.35;;;3.05;;
17340;SDS011;8788;49.930;8.660;2022-08-19T17:46:45;3.33;;;3.13;;
17340;SDS011;8788;49.930;8.660;2022-08-19T17:49:12;3.05;;;2.83;;
17340;SDS011;8788;49.930;8.660;2022-08-19T17:51:41;3.53;;;3.20;;
17340;SDS011;8788;49.930;8.660;2022-08-19T17:54:10;2.90;;;2.70;;
17340;SDS011;8788;49.930;8.660;2022-08-19T17:56:39;2.70;;;2.50;;
17340;SDS011;8788;49.930;8.660;2022-08-19T17:59:08;2.72;;;2.53;;
17340;SDS011;8788;49.930;8.660;2022-08-19T18:01:36;3.00;;;2.70;;
17340;SDS011;8788;49.930;8.660;2022-08-19T18:04:03;2.58;;;2.38;;
17340;SDS011;8788;49.930;8.660;2022-08-19T18:06:31;3.65;;;2.95;;
17340;SDS011;8788;49.930;8.660;2022-08-19T18:09:01;3.60;;;2.60;;
17340;SDS011;8788;49.930;8.660;2022-08-19T18:11:29;2.88;;;2.60;;
17340;SDS011;8788;49.930;8.660;2022-08-19T18:13:56;3.08;;;2.78;;
17340;SDS011;8788;49.930;8.660;2022-08-19T18:16:25;3.08;;;2.88;;
17340;SDS011;8788;49.930;8.660;2022-08-19T18:18:52;2.97;;;2.75;;
17340;SDS011;8788;49.930;8.660;2022-08-19T18:21:19;3.67;;;3.28;;
17340;SDS011;8788;49.930;8.660;2022-08-19T18:23:54;3.88;;;3.05;;
17340;SDS011;8788;49.930;8.660;2022-08-19T18:26:21;6.15;;;3.22;;
17340;SDS011;8788;49.930;8.660;2022-08-19T18:28:48;4.13;;;3.65;;
17340;SDS011;8788;49.930;8.660;2022-08-19T18:31:16;3.83;;;3.28;;
17340;SDS011;8788;49.930;8.660;2022-08-19T18:33:45;3.50;;;3.20;;
17340;SDS011;8788;49.930;8.660;2022-08-19T18:36:16;3.42;;;3.13;;
17340;SDS011;8788;49.930;8.660;2022-08-19T18:38:43;3.17;;;2.95;;
17340;SDS011;8788;49.930;8.660;2022-08-19T18:41:28;3.55;;;3.28;;
17340;SDS011;8788;49.930;8.660;2022-08-19T18:44:12;3.55;;;3.25;;
17340;SDS011;8788;49.930;8.660;2022-08-19T18:47:02;3.88;;;3.50;;
17340;SDS011;8788;49.930;8.660;2022-08-19T18:49:49;3.60;;;3.28;;
17340;SDS011;8788;49.930;8.660;2022-08-19T18:52:16;3.85;;;3.15;;
17340;SDS011;8788;49.930;8.660;2022-08-19T18:54:43;3.45;;;3.15;;
17340;SDS011;8788;49.930;8.660;2022-08-19T18:57:11;3.95;;;3.65;;
17340;SDS011;8788;49.930;8.660;2022-08-19T18:59:39;3.10;;;2.88;;
17340;SDS011;8788;49.930;8.660;2022-08-19T19:02:07;3.35;;;3.05;;
17340;SDS011;8788;49.930;8.660;2022-08-19T19:04:36;3.05;;;2.78;;
17340;SDS011;8788;49.930;8.660;2022-08-19T19:07:05;3.92;;;3.22;;
17340;SDS011;8788;49.930;8.660;2022-08-19T19:09:33;3.53;;;3.22;;
17340;SDS011;8788;49.930;8.660;2022-08-19T19:12:01;3.92;;;3.58;;
17340;SDS011;8788;49.930;8.660;2022-08-19T19:14:31;3.75;;;3.20;;
17340;SDS011;8788;49.930;8.660;2022-08-19T19:17:02;3.22;;;2.92;;